Istanbul, Turkey

12:56 AM EEST on October 22, 2014 (GMT +0300)
Ataturk | Change Station
CLOSE
Current Station
Airport
Location: Istanbul,
Elevation: 121 ft
Nearby Weather Stations

Elev 121 ft 40.98 °N, 28.81 °E | Updated 36 minutes ago

Clear
Clear
59 °F
Feels Like 59 °F
N
1
Wind Variable Wind from Variable

Today
High -- | Low -- °F
--% Chance of Precip.
Yesterday
High -- | Low -- °F
Precip. -- in
7:23 AM 6:14 PM
Waning Crescent, 4% visible
Pressure 29.86 in
Visibility -9999.0 miles
Clouds
Dew Point 54 °F
Humidity 82%
Rainfall 0.00 in
Snow Depth Not available.
UV Not available.
Pollen Not available.
Air Quality Not available.
Flu Activity Not available.
METAR LTBA 212120Z VRB01KT CAVOK 15/12 Q1011 NOSIG RMK RWY17L 21005KT RWY05 00000KT RWY23 VRB01KT

More Conditions Fewer Conditions

Pressure 29.86 in
Visibility -9999.0 miles
Clouds
Dew Point 54 °F
Humidity 82%
Rainfall 0.00 in
Snow Depth Not available.
UV Not available.
Pollen Not available.
Air Quality Not available.
Flu Activity Not available.
METAR LTBA 212120Z VRB01KT CAVOK 15/12 Q1011 NOSIG RMK RWY17L 21005KT RWY05 00000KT RWY23 VRB01KT

More Conditions Fewer Conditions

10-Day Weather Forecast

Almanac

Astronomy

Oct. 22, 2014 Rise Set
Actual Time 7:23 AM EEST 6:14 PM EEST
Civil Twilight 6:55 AM EEST 6:42 PM EEST
Nautical Twilight 6:23 AM EEST 7:14 PM EEST
Astronomical Twilight 5:51 AM EEST 7:45 PM EEST
Moon 5:45 AM EEST (10/22) 5:30 PM EEST (10/22)
Length of Visible Light 11h 46m
Length of Day
10h 50m
Tomorrow will be 2m 33s shorter.
Waning Crescent, 4% of the Moon is Illuminated
Oct 21
Waning Crescent
Oct 23
New
Oct 30
First Quarter
Nov 6
Full
Nov 14
Last Quarter

Yesterday's Extremes

Country Highs Country Lows

Community

WunderPhotos

Upload Photos

1,763,785 photos uploaded!

Nearby

Snow Depth

Not available.

Earthquake Activity

City Distance Mag. Time & Date
No recent earthquake activity has been reported nearby.
Minimum magnitude displayed is 2.5.

Coastal Water Temperatures

Place Temperature
No Stations Reporting

Nearby Weather Stations